Felts Field
KSFF : rendu visible

Aérodrome :











RETROUVEZ-NOUS SUR...

 
LOGIN :

S'inscrire | Disclaimer

   EN    FR    IT 

 









Légende :    VFR   VFR Marginal   IFR   IFR Intensif   IFR Très Intensif
Visi : 
Plafond : 
>= 8 km
>= 3000ft
5 à 8 km
1000 à 3000 ft
1500m à 5 km
500 à 1000 ft
800 à 1500m
200 à 500 ft
< 800m
< 200 ft
Symboles :   Orages  Brouillard  Fortes neiges  Fortes précipitations  Vent > 20 kt






- Altitude de l'aérodrome : 1953 ft


KSFF - Felts Field

DERNIER METAR :
  • 170953Z AUTO 00000KT 7SM OVC050 06/04 A3021 RMK AO2 SLP236 T00560044

METARs EXPIRÉS :
  • 170853Z AUTO 00000KT 5SM BR SCT050 06/04 A3022 RMK AO2 SLP239 T00560039 58012
  • 170753Z AUTO 00000KT 6SM BR OVC050 06/04 A3025 RMK AO2 SLP252 T00560044 400830039

TAF KSFF
Valide du 17 à 10h jusqu'au 18 à 06h UTC


170955Z 1710/1806 VRB03KT 5SM BR BKN050 BKN080 OVC120
FM171500 20003KT 4SM -RA BR SCT004 SCT020 OVC040
FM171700 21003KT 5SM -RA BR BKN015 OVC030
FM172000 22007KT P6SM SCT015 BKN035 OVC050
FM180200 24003KT P6SM SCT035 SCT050 SCT250



MET'MAP, la Météo Aéronautique d'un coup d'oeil ! - Copyright ORBIFLY Décembre 2007 - Disclaimer

ORBIFLY MET'MAP TEAM :

Programmation & Développement : Alexandra Zaïnal
Conception & Développement : Baudouin d'Aumeries
Co-Programmation & Développement : Marc-Olivier Méhu
Soutien technique & logistique : Manuel Goepfert

Contact : metmap@orbifly.com




SOURCES & CREDITS :

   NOAA       Earth
Advisory